KTVL/TVL METAR and TAF weather

Enter ICAO airport designator
Station Type Date Time Source
KTVL METAR 2021/09/20 04:53 UTC NOAA

KTVL 200453Z AUTO 12007G15KT 060V160 10SM CLR 12/M02 A3023 RMK AO2 SLP195 T01221017


Station Type Date Time Source
KTVL Decoded METAR 2021/09/20 04:53 UTC NOAA

SOUTH LAKE TAHOE AIRPORT, CA, United States (KTVL) 38-53N 119-59W 1925M
Sep 20, 2021 - 12:53 AM EDT / 2021.09.20 0453 UTC
Wind: from the ESE (120 degrees) at 8 MPH (7 KT) gusting to 17 MPH (15 KT) (direction variable):0
Visibility: 10 mile(s):0
Sky conditions: clear
Temperature: 54.0 F (12.2 C)
Dew Point: 28.9 F (-1.7 C)
Relative Humidity: 37%
Pressure (altimeter): 30.23 in. Hg (1023 hPa)
ob: KTVL 200453Z AUTO 12007G15KT 060V160 10SM CLR 12/M02 A3023 RMK AO2 SLP195 T01221017
cycle: 5

Station Type Date Time Source
KTVL TAF 2021/09/20 06:22 UTC NOAA

TAF KTVL 200520Z 2006/2106 VRB03KT P6SM FEW200
FM201700 04010KT P6SM SKC
FM210200 VRB05KT P6SM SKC

Example: see airport list